createdAt,value
2022-08-17T00:00:13.615Z,4.20
2022-08-17T00:03:02.782Z,4.25
2022-08-17T00:05:32.711Z,3.97
2022-08-17T00:08:01.557Z,4.38
2022-08-17T00:10:29.202Z,3.85
2022-08-17T00:12:59.805Z,3.78
2022-08-17T00:15:27.770Z,4.38
2022-08-17T00:17:55.296Z,4.57
2022-08-17T00:20:23.454Z,4.68
2022-08-17T00:23:13.453Z,4.25
2022-08-17T00:25:41.529Z,3.80
2022-08-17T00:28:09.442Z,3.45
2022-08-17T00:30:50.880Z,3.15
2022-08-17T00:33:26.126Z,3.90
2022-08-17T00:35:54.786Z,3.50
2022-08-17T00:38:24.399Z,3.28
2022-08-17T00:40:55.978Z,3.47
2022-08-17T00:43:32.729Z,3.50
2022-08-17T00:46:02.317Z,3.53
2022-08-17T00:48:30.904Z,3.47
2022-08-17T00:51:04.685Z,3.28
2022-08-17T00:53:36.497Z,3.83
2022-08-17T00:56:09.349Z,3.30
2022-08-17T00:58:38.299Z,3.40
2022-08-17T01:01:09.011Z,3.42
2022-08-17T01:03:38.169Z,3.40
2022-08-17T01:06:09.050Z,2.97
2022-08-17T01:08:40.943Z,3.53
2022-08-17T01:11:09.030Z,3.47
2022-08-17T01:13:41.712Z,3.80
2022-08-17T01:16:15.870Z,3.42
2022-08-17T01:18:44.767Z,3.28
2022-08-17T01:21:19.468Z,3.58
2022-08-17T01:23:48.330Z,3.65
2022-08-17T01:26:16.432Z,3.63
2022-08-17T01:28:54.066Z,3.67
2022-08-17T01:31:24.944Z,3.75
2022-08-17T01:33:52.528Z,3.47
2022-08-17T01:36:20.544Z,3.42
2022-08-17T01:38:49.482Z,3.60
2022-08-17T01:41:17.699Z,3.65
2022-08-17T01:43:48.798Z,3.53
2022-08-17T01:46:20.069Z,3.45
2022-08-17T01:48:48.402Z,3.10
2022-08-17T01:51:16.636Z,3.75
2022-08-17T01:53:48.337Z,3.22
2022-08-17T01:56:21.094Z,3.40
2022-08-17T01:58:48.652Z,2.97
2022-08-17T02:01:17.789Z,3.00
2022-08-17T02:03:59.149Z,3.40
2022-08-17T02:06:30.340Z,3.10
2022-08-17T02:09:02.894Z,3.03
2022-08-17T02:14:04.059Z,2.97
2022-08-17T02:16:36.781Z,3.90
2022-08-17T02:19:08.188Z,3.13
2022-08-17T02:21:36.195Z,3.78
2022-08-17T02:24:05.838Z,3.47
2022-08-17T02:26:34.802Z,3.55
2022-08-17T02:29:04.001Z,3.35
2022-08-17T02:31:31.980Z,3.30
2022-08-17T02:34:04.543Z,3.58
2022-08-17T02:36:33.578Z,2.83
2022-08-17T02:39:01.634Z,3.30
2022-08-17T02:41:29.368Z,3.13
2022-08-17T02:43:58.580Z,3.30
2022-08-17T02:46:26.496Z,3.22
2022-08-17T02:48:54.085Z,3.15
2022-08-17T02:51:21.590Z,3.08
2022-08-17T02:53:49.102Z,2.92
2022-08-17T02:56:16.864Z,3.30
2022-08-17T02:58:44.387Z,3.35
2022-08-17T03:01:13.585Z,2.85
2022-08-17T03:03:41.649Z,2.80
2022-08-17T03:06:09.983Z,3.03
2022-08-17T03:08:38.153Z,3.03
2022-08-17T03:11:05.959Z,2.83
2022-08-17T03:13:34.066Z,2.95
2022-08-17T03:16:01.573Z,3.50
2022-08-17T03:18:30.408Z,3.40
2022-08-17T03:21:00.952Z,3.10
2022-08-17T03:23:30.348Z,3.00
2022-08-17T03:25:58.442Z,2.90
2022-08-17T03:28:28.141Z,4.82
2022-08-17T03:30:55.754Z,4.68
2022-08-17T03:33:23.691Z,5.55
2022-08-17T03:35:52.736Z,5.43
2022-08-17T03:38:20.436Z,6.30
2022-08-17T03:40:58.921Z,5.25
2022-08-17T03:43:29.466Z,4.97
2022-08-17T03:46:34.778Z,5.43
2022-08-17T03:49:20.012Z,5.85
2022-08-17T03:52:18.129Z,6.20
2022-08-17T03:55:04.329Z,5.90
2022-08-17T03:57:32.249Z,5.72
2022-08-17T03:59:59.826Z,5.75
2022-08-17T04:02:30.119Z,5.10
2022-08-17T04:04:58.272Z,5.55
2022-08-17T04:07:30.008Z,5.90
2022-08-17T04:09:59.325Z,5.93
2022-08-17T04:12:30.701Z,6.75
2022-08-17T04:14:58.577Z,6.55
2022-08-17T04:17:28.203Z,6.90
2022-08-17T04:19:56.669Z,6.80
2022-08-17T04:22:30.930Z,6.30
2022-08-17T04:25:03.869Z,6.22
2022-08-17T04:27:31.736Z,6.82
2022-08-17T04:29:59.496Z,6.30
2022-08-17T04:33:04.429Z,5.93
2022-08-17T04:35:19.196Z,5.80
2022-08-17T04:37:47.354Z,6.10
2022-08-17T04:40:34.549Z,7.22
2022-08-17T04:43:03.654Z,6.80
2022-08-17T04:45:32.395Z,7.10
2022-08-17T04:48:00.593Z,6.13
2022-08-17T04:50:28.195Z,7.03
2022-08-17T04:52:55.972Z,6.40
2022-08-17T04:55:24.962Z,6.00
2022-08-17T04:57:52.472Z,7.28
2022-08-17T05:00:20.278Z,8.35
2022-08-17T05:02:50.475Z,7.43
2022-08-17T05:05:20.816Z,6.88
2022-08-17T05:07:48.624Z,7.63
2022-08-17T05:10:16.330Z,7.05
2022-08-17T05:12:45.340Z,6.90
2022-08-17T05:15:16.014Z,6.78
2022-08-17T05:17:43.636Z,6.60
2022-08-17T05:20:12.054Z,6.82
2022-08-17T05:22:50.127Z,6.00
2022-08-17T05:25:20.653Z,6.03
2022-08-17T05:27:55.351Z,5.25
2022-08-17T05:30:24.395Z,5.00
2022-08-17T05:32:54.066Z,4.75
2022-08-17T05:35:22.318Z,4.40
2022-08-17T05:37:50.713Z,5.65
2022-08-17T05:40:19.885Z,5.53
2022-08-17T05:42:47.863Z,6.25
2022-08-17T05:45:55.319Z,6.03
2022-08-17T05:48:08.239Z,5.57
2022-08-17T05:50:45.257Z,6.15
2022-08-17T05:53:20.337Z,5.68
2022-08-17T05:55:58.126Z,6.72
2022-08-17T05:58:41.936Z,5.85
2022-08-17T06:01:25.885Z,5.22
2022-08-17T06:04:01.594Z,5.47
2022-08-17T06:06:39.764Z,5.28
2022-08-17T06:09:24.777Z,5.32
2022-08-17T06:11:58.657Z,4.82
2022-08-17T06:14:36.210Z,3.85
2022-08-17T06:17:09.127Z,4.72
2022-08-17T06:19:41.672Z,4.03
2022-08-17T06:22:10.837Z,4.00
2022-08-17T06:24:43.192Z,4.93
2022-08-17T06:27:17.418Z,4.45
2022-08-17T06:29:53.925Z,4.50
2022-08-17T06:32:22.911Z,4.30
2022-08-17T06:34:50.590Z,4.15
2022-08-17T06:37:48.748Z,4.28
2022-08-17T06:40:30.690Z,4.30
2022-08-17T06:43:15.350Z,4.10
2022-08-17T06:45:49.046Z,4.38
2022-08-17T06:48:25.432Z,3.60
2022-08-17T06:50:59.859Z,4.13
2022-08-17T06:53:32.402Z,3.65
2022-08-17T06:56:05.905Z,4.05
2022-08-17T06:58:35.709Z,3.60
2022-08-17T07:01:10.624Z,4.35
2022-08-17T07:03:49.801Z,3.92
2022-08-17T07:06:20.589Z,3.70
2022-08-17T07:08:56.172Z,3.53
2022-08-17T07:11:28.359Z,4.28
2022-08-17T07:16:33.359Z,3.33
2022-08-17T07:19:02.274Z,3.17
2022-08-17T07:21:41.551Z,3.85
2022-08-17T07:24:30.280Z,3.67
2022-08-17T07:27:11.140Z,4.30
2022-08-17T07:29:42.374Z,3.20
2022-08-17T07:32:11.277Z,3.50
2022-08-17T07:35:13.058Z,3.20
2022-08-17T07:37:45.494Z,3.05
2022-08-17T07:40:33.391Z,3.70
2022-08-17T07:43:22.417Z,3.63
2022-08-17T07:46:21.170Z,3.40
2022-08-17T07:48:51.714Z,3.05
2022-08-17T07:51:25.220Z,3.17
2022-08-17T07:53:54.473Z,2.80
2022-08-17T07:56:41.145Z,2.83
2022-08-17T07:59:12.123Z,3.70
2022-08-17T08:01:42.045Z,3.03
2022-08-17T08:04:49.915Z,2.85
2022-08-17T08:07:31.966Z,3.30
2022-08-17T08:10:10.623Z,3.10
2022-08-17T08:12:41.694Z,3.20
2022-08-17T08:15:17.708Z,3.08
2022-08-17T08:17:54.321Z,3.00
2022-08-17T08:20:37.750Z,2.90
2022-08-17T08:23:29.499Z,2.90
2022-08-17T08:26:13.150Z,2.83
2022-08-17T08:28:52.119Z,2.40
2022-08-17T08:31:31.472Z,2.42
2022-08-17T08:34:59.057Z,2.88
2022-08-17T08:37:17.799Z,2.90
2022-08-17T08:40:03.328Z,3.28
2022-08-17T08:42:42.718Z,3.15
2022-08-17T08:45:16.075Z,3.45
2022-08-17T08:48:05.509Z,3.03
2022-08-17T08:50:42.769Z,3.00
2022-08-17T08:53:23.593Z,3.05
2022-08-17T08:55:59.729Z,3.10
2022-08-17T08:58:41.367Z,2.70
2022-08-17T09:01:18.297Z,3.00
2022-08-17T09:04:21.361Z,3.53
2022-08-17T09:07:01.496Z,2.65
2022-08-17T09:09:42.962Z,2.50
2022-08-17T09:12:18.461Z,2.72
2022-08-17T09:14:55.859Z,2.90
2022-08-17T09:17:31.206Z,2.70
2022-08-17T09:20:04.774Z,2.70
2022-08-17T09:22:38.052Z,2.55
2022-08-17T09:25:10.841Z,2.45
2022-08-17T09:27:51.431Z,2.70
2022-08-17T09:30:19.617Z,2.42
2022-08-17T09:32:51.984Z,2.65
2022-08-17T09:35:23.748Z,2.00
2022-08-17T09:38:00.390Z,2.55
2022-08-17T09:40:33.524Z,2.28
2022-08-17T09:43:08.771Z,2.47
2022-08-17T09:45:42.586Z,2.25
2022-08-17T09:48:19.138Z,2.55
2022-08-17T09:51:03.984Z,2.13
2022-08-17T09:53:33.647Z,2.45
2022-08-17T09:56:17.626Z,2.38
2022-08-17T09:59:14.460Z,2.25
2022-08-17T10:01:48.055Z,2.17
2022-08-17T10:04:33.375Z,2.55
2022-08-17T10:07:08.326Z,2.20
2022-08-17T10:09:49.420Z,2.00
2022-08-17T10:12:30.063Z,2.47
2022-08-17T10:15:09.923Z,2.40
2022-08-17T10:17:50.767Z,2.35
2022-08-17T10:20:24.228Z,2.35
2022-08-17T10:23:14.753Z,2.20
2022-08-17T10:26:08.885Z,2.70
2022-08-17T10:28:41.434Z,2.45
2022-08-17T10:36:43.142Z,2.33
2022-08-17T10:39:21.157Z,2.47
2022-08-17T10:41:52.826Z,2.08
2022-08-17T10:44:40.425Z,3.03
2022-08-17T10:47:13.687Z,2.20
2022-08-17T10:49:45.650Z,2.50
2022-08-17T10:55:14.814Z,2.28
2022-08-17T10:57:45.368Z,2.35
2022-08-17T11:00:36.064Z,2.50
2022-08-17T11:03:19.626Z,2.05
2022-08-17T11:06:00.950Z,3.00
2022-08-17T11:08:53.458Z,2.10
2022-08-17T11:11:47.471Z,2.10
2022-08-17T11:14:30.774Z,2.67
2022-08-17T11:17:13.044Z,1.95
2022-08-17T11:20:15.452Z,2.40
2022-08-17T11:23:27.036Z,2.47
2022-08-17T11:25:56.328Z,2.63
2022-08-17T11:28:28.006Z,2.55
2022-08-17T11:30:58.855Z,2.80
2022-08-17T11:34:04.591Z,2.53
2022-08-17T11:36:52.751Z,2.90
2022-08-17T11:39:36.826Z,2.40
2022-08-17T11:42:11.709Z,2.78
2022-08-17T11:44:47.815Z,3.15
2022-08-17T11:47:39.355Z,2.90
2022-08-17T11:50:41.303Z,3.08
2022-08-17T11:53:48.553Z,2.45
2022-08-17T11:56:34.546Z,2.47
2022-08-17T11:59:03.009Z,2.20
2022-08-17T12:01:52.670Z,2.40
2022-08-17T12:04:27.905Z,2.80
2022-08-17T12:06:59.986Z,2.30
2022-08-17T12:09:31.730Z,2.35
2022-08-17T12:12:13.351Z,2.20
2022-08-17T12:17:41.163Z,2.88
2022-08-17T12:20:24.027Z,2.22
2022-08-17T12:23:01.190Z,2.60
2022-08-17T12:25:35.009Z,2.60
2022-08-17T12:28:07.596Z,2.33
2022-08-17T12:30:37.371Z,2.60
2022-08-17T12:33:12.241Z,2.50
2022-08-17T12:35:39.867Z,2.78
2022-08-17T12:38:26.637Z,2.92
2022-08-17T12:40:59.729Z,2.72
2022-08-17T12:43:32.779Z,2.85
2022-08-17T12:46:13.291Z,2.67
2022-08-17T12:48:59.157Z,2.75
2022-08-17T12:51:28.983Z,2.80
2022-08-17T12:53:57.515Z,2.30
2022-08-17T12:56:25.545Z,2.30
2022-08-17T12:58:55.550Z,2.83
2022-08-17T13:01:25.116Z,2.42
2022-08-17T13:03:59.651Z,2.72
2022-08-17T13:06:30.169Z,2.30
2022-08-17T13:08:57.833Z,2.65
2022-08-17T13:11:25.872Z,2.60
2022-08-17T13:13:56.928Z,2.50
2022-08-17T13:16:26.839Z,2.63
2022-08-17T13:19:05.189Z,2.28
2022-08-17T13:21:33.857Z,2.47
2022-08-17T13:24:04.642Z,2.03
2022-08-17T13:26:35.169Z,2.88
2022-08-17T13:29:07.626Z,2.15
2022-08-17T13:31:52.187Z,2.72
2022-08-17T13:34:56.146Z,2.20
2022-08-17T13:37:30.784Z,2.50
2022-08-17T13:40:00.777Z,2.00
2022-08-17T13:42:35.127Z,2.50
2022-08-17T13:45:50.413Z,2.10
2022-08-17T13:48:26.805Z,2.72
2022-08-17T13:51:12.637Z,2.35
2022-08-17T13:54:01.195Z,2.90
2022-08-17T13:56:37.587Z,2.40
2022-08-17T13:59:11.140Z,2.35
2022-08-17T14:04:12.091Z,2.70
2022-08-17T14:06:52.920Z,2.67
2022-08-17T14:09:24.496Z,2.28
2022-08-17T14:11:54.357Z,2.35
2022-08-17T14:14:24.117Z,2.08
2022-08-17T14:16:53.651Z,2.28
2022-08-17T14:19:22.113Z,2.25
2022-08-17T14:21:50.141Z,2.47
2022-08-17T14:24:23.135Z,2.10
2022-08-17T14:26:52.282Z,2.30
2022-08-17T14:29:20.571Z,2.42
2022-08-17T14:31:49.652Z,2.50
2022-08-17T14:34:23.614Z,2.53
2022-08-17T14:36:51.317Z,2.25
2022-08-17T14:39:19.735Z,2.30
2022-08-17T14:41:47.380Z,2.58
2022-08-17T14:44:16.733Z,2.70
2022-08-17T14:46:45.703Z,2.60
2022-08-17T14:49:15.574Z,2.63
2022-08-17T14:51:44.799Z,2.42
2022-08-17T14:54:28.861Z,2.47
2022-08-17T14:57:22.635Z,2.35
2022-08-17T14:59:54.973Z,2.22
2022-08-17T15:02:30.013Z,2.40
2022-08-17T15:04:59.973Z,2.65
2022-08-17T15:07:30.665Z,2.40
2022-08-17T15:10:00.920Z,2.75
2022-08-17T15:12:32.735Z,2.40
2022-08-17T15:15:01.545Z,2.50
2022-08-17T15:17:45.125Z,2.35
2022-08-17T15:20:17.426Z,2.50
2022-08-17T15:22:49.529Z,2.33
2022-08-17T15:25:18.870Z,2.83
2022-08-17T15:27:47.426Z,2.30
2022-08-17T15:30:15.750Z,2.25
2022-08-17T15:32:48.195Z,2.53
2022-08-17T15:35:28.380Z,2.58
2022-08-17T15:38:04.521Z,2.30
2022-08-17T15:40:36.647Z,2.58
2022-08-17T15:43:06.226Z,3.03
2022-08-17T15:45:33.993Z,2.40
2022-08-17T15:48:01.564Z,2.55
2022-08-17T15:50:29.205Z,2.95
2022-08-17T15:53:00.564Z,2.70
2022-08-17T15:55:30.923Z,2.67
2022-08-17T15:57:58.698Z,2.20
2022-08-17T16:00:28.376Z,2.53
2022-08-17T16:03:45.128Z,2.33
2022-08-17T16:05:44.213Z,2.40
2022-08-17T16:08:20.663Z,2.75
2022-08-17T16:10:48.825Z,2.25
2022-08-17T16:13:17.474Z,2.47
2022-08-17T16:15:51.064Z,2.63
2022-08-17T16:18:25.749Z,2.72
2022-08-17T16:20:53.605Z,2.47
2022-08-17T16:23:22.539Z,2.35
2022-08-17T16:25:53.587Z,2.42
2022-08-17T16:28:29.873Z,2.30
2022-08-17T16:31:05.781Z,2.78
2022-08-17T16:33:36.388Z,2.33
2022-08-17T16:36:04.336Z,3.15
2022-08-17T16:38:33.222Z,2.60
2022-08-17T16:41:01.472Z,2.45
2022-08-17T16:43:29.218Z,2.65
2022-08-17T16:45:56.812Z,2.20
2022-08-17T16:48:24.375Z,2.47
2022-08-17T16:51:02.922Z,2.60
2022-08-17T16:53:32.981Z,2.28
2022-08-17T16:56:00.512Z,2.90
2022-08-17T16:58:28.245Z,2.45
2022-08-17T17:00:59.645Z,2.58
2022-08-17T17:03:30.203Z,2.50
2022-08-17T17:06:08.881Z,2.80
2022-08-17T17:08:44.503Z,2.38
2022-08-17T17:11:15.658Z,2.60
2022-08-17T17:17:27.362Z,2.40
2022-08-17T17:20:09.554Z,2.38
2022-08-17T17:26:07.709Z,3.10
2022-08-17T17:28:58.472Z,3.70
2022-08-17T17:31:33.772Z,3.50
2022-08-17T17:34:09.440Z,3.20
2022-08-17T17:36:41.828Z,2.80
2022-08-17T17:39:14.423Z,3.10
2022-08-17T17:42:05.758Z,3.28
2022-08-17T17:44:41.331Z,2.37
2022-08-17T17:47:11.735Z,2.45
2022-08-17T17:49:40.855Z,3.40
2022-08-17T17:52:18.386Z,2.92
2022-08-17T17:55:00.398Z,2.85
2022-08-17T17:57:44.100Z,3.00
2022-08-17T18:00:16.512Z,2.72
2022-08-17T18:02:59.614Z,2.72
2022-08-17T18:05:57.244Z,2.92
2022-08-17T18:08:50.716Z,3.47
2022-08-17T18:11:40.390Z,2.90
2022-08-17T18:14:23.506Z,3.80
2022-08-17T18:16:56.699Z,2.83
2022-08-17T18:19:26.124Z,3.53
2022-08-17T18:22:02.059Z,3.13
2022-08-17T18:27:02.505Z,3.10
2022-08-17T18:29:44.806Z,3.20
2022-08-17T18:32:19.126Z,2.75
2022-08-17T18:34:49.040Z,3.45
2022-08-17T18:37:37.378Z,3.05
2022-08-17T18:40:37.617Z,2.92
2022-08-17T18:43:14.937Z,2.80
2022-08-17T18:51:45.621Z,2.97
2022-08-17T19:24:47.650Z,3.53
2022-08-17T19:31:15.589Z,3.45
2022-08-17T19:33:50.587Z,3.08
2022-08-17T19:54:47.946Z,3.03
2022-08-17T20:10:55.280Z,3.22
2022-08-17T20:13:33.152Z,3.33
2022-08-17T20:16:02.350Z,4.40
2022-08-17T20:18:37.674Z,3.58
2022-08-17T20:21:20.192Z,3.30
2022-08-17T20:23:53.531Z,3.45
2022-08-17T20:26:27.434Z,3.05
2022-08-17T20:29:37.295Z,3.72
2022-08-17T20:32:26.244Z,3.33
2022-08-17T20:35:10.291Z,3.47
2022-08-17T20:37:43.125Z,3.20
2022-08-17T20:40:30.152Z,3.75
2022-08-17T20:43:00.591Z,4.50
2022-08-17T20:46:05.719Z,4.03
2022-08-17T20:48:39.318Z,3.72
2022-08-17T20:51:30.052Z,3.10
2022-08-17T20:54:22.380Z,3.45
2022-08-17T20:56:57.638Z,3.40
2022-08-17T21:00:02.818Z,3.50
2022-08-17T21:02:32.227Z,3.58
2022-08-17T21:05:30.174Z,3.65
2022-08-17T21:08:00.457Z,3.90
2022-08-17T21:10:36.844Z,3.50
2022-08-17T21:13:32.445Z,3.47
2022-08-17T21:16:07.830Z,4.55
2022-08-17T21:18:42.293Z,3.28
2022-08-17T21:21:22.505Z,3.13
2022-08-17T21:24:03.723Z,3.90
2022-08-17T21:26:50.718Z,3.17
2022-08-17T21:29:31.888Z,3.53
2022-08-17T21:32:24.412Z,4.30
2022-08-17T21:35:26.681Z,3.67
2022-08-17T21:37:59.934Z,4.03
2022-08-17T21:40:29.622Z,3.33
2022-08-17T21:43:01.099Z,3.95
2022-08-17T21:45:35.030Z,4.03
2022-08-17T21:48:14.516Z,3.13
2022-08-17T21:50:45.102Z,4.10
2022-08-17T21:53:19.390Z,3.80
2022-08-17T21:55:50.221Z,4.85
2022-08-17T21:58:29.122Z,3.97
2022-08-17T22:01:23.331Z,3.63
2022-08-17T22:04:03.250Z,3.35
2022-08-17T22:06:35.604Z,3.72
2022-08-17T22:09:14.425Z,3.67
2022-08-17T22:12:02.022Z,3.72
2022-08-17T22:14:52.217Z,2.90
2022-08-17T22:17:23.615Z,3.50
2022-08-17T22:19:56.276Z,4.07
2022-08-17T22:22:57.722Z,4.15
2022-08-17T22:25:28.033Z,4.47
2022-08-17T22:27:58.402Z,3.83
2022-08-17T22:30:35.298Z,4.35
2022-08-17T22:33:31.271Z,4.72
2022-08-17T22:36:12.243Z,4.40
2022-08-17T22:38:41.369Z,4.28
2022-08-17T22:41:32.010Z,4.35
2022-08-17T22:44:07.246Z,3.78
2022-08-17T22:46:39.798Z,3.95
2022-08-17T22:49:08.016Z,4.25
2022-08-17T22:51:37.941Z,4.50
2022-08-17T22:54:37.401Z,4.70
2022-08-17T22:57:23.795Z,5.30
2022-08-17T22:59:53.479Z,4.53
2022-08-17T23:02:25.137Z,5.20
2022-08-17T23:04:57.406Z,5.57
2022-08-17T23:09:55.099Z,5.28
2022-08-17T23:12:27.009Z,5.47
2022-08-17T23:15:00.441Z,4.90
2022-08-17T23:17:30.413Z,5.03
2022-08-17T23:20:01.465Z,4.78
2022-08-17T23:22:33.767Z,4.97
2022-08-17T23:25:01.283Z,5.03
2022-08-17T23:27:29.344Z,5.03
2022-08-17T23:29:57.110Z,4.68
2022-08-17T23:32:25.753Z,5.97
2022-08-17T23:34:53.308Z,6.15
2022-08-17T23:37:21.225Z,4.78
2022-08-17T23:39:50.108Z,5.13
2022-08-17T23:42:21.611Z,5.43
2022-08-17T23:44:49.427Z,5.47
2022-08-17T23:47:17.246Z,4.63
2022-08-17T23:49:45.505Z,5.93
2022-08-17T23:52:16.520Z,4.95
2022-08-17T23:54:46.563Z,4.30
2022-08-17T23:57:19.746Z,5.25
